sensor_id;sensor_type;location;lat;lon;timestamp;P1;durP1;ratioP1;P2;durP2;ratioP2
16731;SDS011;8484;50.904;9.192;2024-02-15T00:00:05;5.33;;;4.00;;
16731;SDS011;8484;50.904;9.192;2024-02-15T00:02:52;4.03;;;3.63;;
16731;SDS011;8484;50.904;9.192;2024-02-15T00:05:37;4.40;;;4.00;;
16731;SDS011;8484;50.904;9.192;2024-02-15T00:08:23;4.30;;;3.90;;
16731;SDS011;8484;50.904;9.192;2024-02-15T00:11:12;4.40;;;4.00;;
16731;SDS011;8484;50.904;9.192;2024-02-15T00:13:57;4.53;;;4.07;;
16731;SDS011;8484;50.904;9.192;2024-02-15T00:16:44;4.20;;;3.80;;
16731;SDS011;8484;50.904;9.192;2024-02-15T00:19:30;4.63;;;4.03;;
16731;SDS011;8484;50.904;9.192;2024-02-15T00:22:16;4.27;;;3.87;;
16731;SDS011;8484;50.904;9.192;2024-02-15T00:25:01;4.60;;;4.20;;
16731;SDS011;8484;50.904;9.192;2024-02-15T00:27:49;4.73;;;4.33;;
16731;SDS011;8484;50.904;9.192;2024-02-15T00:30:35;4.40;;;3.83;;
16731;SDS011;8484;50.904;9.192;2024-02-15T00:33:20;3.97;;;3.57;;
16731;SDS011;8484;50.904;9.192;2024-02-15T00:36:06;4.03;;;3.70;;
16731;SDS011;8484;50.904;9.192;2024-02-15T00:38:52;4.20;;;3.80;;
16731;SDS011;8484;50.904;9.192;2024-02-15T00:41:37;4.70;;;3.93;;
16731;SDS011;8484;50.904;9.192;2024-02-15T00:44:26;3.93;;;3.63;;
16731;SDS011;8484;50.904;9.192;2024-02-15T00:47:12;4.90;;;3.93;;
16731;SDS011;8484;50.904;9.192;2024-02-15T00:49:57;4.17;;;3.77;;
16731;SDS011;8484;50.904;9.192;2024-02-15T00:52:43;4.70;;;4.30;;
16731;SDS011;8484;50.904;9.192;2024-02-15T00:55:28;5.10;;;4.60;;
16731;SDS011;8484;50.904;9.192;2024-02-15T00:58:14;5.47;;;4.97;;
16731;SDS011;8484;50.904;9.192;2024-02-15T01:01:01;6.20;;;5.13;;
16731;SDS011;8484;50.904;9.192;2024-02-15T01:03:46;7.03;;;5.63;;
16731;SDS011;8484;50.904;9.192;2024-02-15T01:06:32;6.50;;;5.87;;
16731;SDS011;8484;50.904;9.192;2024-02-15T01:09:18;6.83;;;6.00;;
16731;SDS011;8484;50.904;9.192;2024-02-15T01:12:04;6.60;;;5.90;;
16731;SDS011;8484;50.904;9.192;2024-02-15T01:14:49;7.30;;;6.20;;
16731;SDS011;8484;50.904;9.192;2024-02-15T01:17:36;7.80;;;6.70;;
16731;SDS011;8484;50.904;9.192;2024-02-15T01:20:22;6.97;;;5.87;;
16731;SDS011;8484;50.904;9.192;2024-02-15T01:23:07;11.90;;;6.13;;
16731;SDS011;8484;50.904;9.192;2024-02-15T01:25:53;7.27;;;6.20;;
16731;SDS011;8484;50.904;9.192;2024-02-15T01:28:39;6.60;;;5.73;;
16731;SDS011;8484;50.904;9.192;2024-02-15T01:31:26;6.73;;;5.80;;
16731;SDS011;8484;50.904;9.192;2024-02-15T01:34:13;7.27;;;5.70;;
16731;SDS011;8484;50.904;9.192;2024-02-15T01:36:59;8.23;;;5.90;;
16731;SDS011;8484;50.904;9.192;2024-02-15T01:39:45;7.80;;;6.43;;
16731;SDS011;8484;50.904;9.192;2024-02-15T01:42:30;7.70;;;6.20;;
16731;SDS011;8484;50.904;9.192;2024-02-15T01:45:16;10.53;;;6.80;;
16731;SDS011;8484;50.904;9.192;2024-02-15T01:48:01;8.03;;;6.93;;
16731;SDS011;8484;50.904;9.192;2024-02-15T01:50:49;7.63;;;6.57;;
16731;SDS011;8484;50.904;9.192;2024-02-15T01:53:35;8.47;;;6.80;;
16731;SDS011;8484;50.904;9.192;2024-02-15T01:56:21;7.33;;;6.53;;
16731;SDS011;8484;50.904;9.192;2024-02-15T01:59:09;10.20;;;7.33;;
16731;SDS011;8484;50.904;9.192;2024-02-15T02:01:56;9.10;;;7.30;;
16731;SDS011;8484;50.904;9.192;2024-02-15T02:04:41;8.80;;;7.07;;
16731;SDS011;8484;50.904;9.192;2024-02-15T02:07:28;8.97;;;7.30;;
16731;SDS011;8484;50.904;9.192;2024-02-15T02:10:13;11.13;;;7.67;;
16731;SDS011;8484;50.904;9.192;2024-02-15T02:13:00;10.47;;;7.73;;
16731;SDS011;8484;50.904;9.192;2024-02-15T02:15:46;9.90;;;8.03;;
16731;SDS011;8484;50.904;9.192;2024-02-15T02:18:31;10.30;;;8.53;;
16731;SDS011;8484;50.904;9.192;2024-02-15T02:21:18;12.73;;;9.00;;
16731;SDS011;8484;50.904;9.192;2024-02-15T02:24:10;10.80;;;8.80;;
16731;SDS011;8484;50.904;9.192;2024-02-15T02:26:59;11.13;;;9.33;;
16731;SDS011;8484;50.904;9.192;2024-02-15T02:29:44;12.23;;;9.10;;
16731;SDS011;8484;50.904;9.192;2024-02-15T02:32:30;10.67;;;9.13;;
16731;SDS011;8484;50.904;9.192;2024-02-15T02:35:17;11.93;;;9.13;;
16731;SDS011;8484;50.904;9.192;2024-02-15T02:38:04;11.93;;;9.73;;
16731;SDS011;8484;50.904;9.192;2024-02-15T02:40:49;10.37;;;9.20;;
16731;SDS011;8484;50.904;9.192;2024-02-15T02:43:36;12.53;;;9.77;;
16731;SDS011;8484;50.904;9.192;2024-02-15T02:46:22;13.00;;;9.37;;
16731;SDS011;8484;50.904;9.192;2024-02-15T02:49:07;11.30;;;9.57;;
16731;SDS011;8484;50.904;9.192;2024-02-15T02:51:53;10.97;;;9.20;;
16731;SDS011;8484;50.904;9.192;2024-02-15T02:54:45;11.47;;;8.87;;
16731;SDS011;8484;50.904;9.192;2024-02-15T02:57:31;10.80;;;8.40;;
16731;SDS011;8484;50.904;9.192;2024-02-15T03:00:18;12.33;;;8.93;;
16731;SDS011;8484;50.904;9.192;2024-02-15T03:03:05;10.17;;;8.37;;
16731;SDS011;8484;50.904;9.192;2024-02-15T03:05:50;10.47;;;8.70;;
16731;SDS011;8484;50.904;9.192;2024-02-15T03:08:37;10.07;;;8.10;;
16731;SDS011;8484;50.904;9.192;2024-02-15T03:11:23;9.20;;;8.23;;
16731;SDS011;8484;50.904;9.192;2024-02-15T03:14:08;9.63;;;7.70;;
16731;SDS011;8484;50.904;9.192;2024-02-15T03:16:56;11.30;;;8.13;;
16731;SDS011;8484;50.904;9.192;2024-02-15T03:19:42;11.73;;;8.40;;
16731;SDS011;8484;50.904;9.192;2024-02-15T03:22:27;11.87;;;8.10;;
16731;SDS011;8484;50.904;9.192;2024-02-15T03:25:14;10.47;;;8.27;;
16731;SDS011;8484;50.904;9.192;2024-02-15T03:28:00;9.73;;;8.33;;
16731;SDS011;8484;50.904;9.192;2024-02-15T03:30:47;11.40;;;8.90;;
16731;SDS011;8484;50.904;9.192;2024-02-15T03:33:35;14.27;;;9.43;;
16731;SDS011;8484;50.904;9.192;2024-02-15T03:36:21;12.57;;;9.33;;
16731;SDS011;8484;50.904;9.192;2024-02-15T03:39:06;12.60;;;10.10;;
16731;SDS011;8484;50.904;9.192;2024-02-15T03:41:53;15.97;;;10.20;;
16731;SDS011;8484;50.904;9.192;2024-02-15T03:44:39;12.67;;;9.60;;
16731;SDS011;8484;50.904;9.192;2024-02-15T03:47:24;13.20;;;9.53;;
16731;SDS011;8484;50.904;9.192;2024-02-15T03:50:14;10.90;;;9.17;;
16731;SDS011;8484;50.904;9.192;2024-02-15T03:52:59;10.60;;;9.17;;
16731;SDS011;8484;50.904;9.192;2024-02-15T03:55:45;11.80;;;9.43;;
16731;SDS011;8484;50.904;9.192;2024-02-15T03:58:31;14.27;;;10.10;;
16731;SDS011;8484;50.904;9.192;2024-02-15T04:01:16;12.67;;;10.20;;
16731;SDS011;8484;50.904;9.192;2024-02-15T04:04:02;15.67;;;10.77;;
16731;SDS011;8484;50.904;9.192;2024-02-15T04:06:49;12.27;;;10.57;;
16731;SDS011;8484;50.904;9.192;2024-02-15T04:09:35;12.40;;;10.33;;
16731;SDS011;8484;50.904;9.192;2024-02-15T04:12:20;14.33;;;10.83;;
16731;SDS011;8484;50.904;9.192;2024-02-15T04:15:06;14.87;;;11.73;;
16731;SDS011;8484;50.904;9.192;2024-02-15T04:17:55;17.63;;;11.30;;
16731;SDS011;8484;50.904;9.192;2024-02-15T04:20:41;16.23;;;11.00;;
16731;SDS011;8484;50.904;9.192;2024-02-15T04:23:31;15.93;;;11.40;;
16731;SDS011;8484;50.904;9.192;2024-02-15T04:26:17;12.10;;;10.83;;
16731;SDS011;8484;50.904;9.192;2024-02-15T04:29:03;14.77;;;11.40;;
16731;SDS011;8484;50.904;9.192;2024-02-15T04:31:51;12.90;;;10.77;;
16731;SDS011;8484;50.904;9.192;2024-02-15T04:34:38;11.63;;;10.43;;
16731;SDS011;8484;50.904;9.192;2024-02-15T04:37:23;14.77;;;10.97;;
16731;SDS011;8484;50.904;9.192;2024-02-15T04:40:13;12.57;;;10.40;;
16731;SDS011;8484;50.904;9.192;2024-02-15T04:43:06;14.43;;;10.47;;
16731;SDS011;8484;50.904;9.192;2024-02-15T04:45:52;14.33;;;10.50;;
16731;SDS011;8484;50.904;9.192;2024-02-15T04:48:38;14.83;;;10.57;;
16731;SDS011;8484;50.904;9.192;2024-02-15T04:51:25;14.30;;;10.27;;
16731;SDS011;8484;50.904;9.192;2024-02-15T04:54:11;13.70;;;10.03;;
16731;SDS011;8484;50.904;9.192;2024-02-15T04:56:59;14.17;;;10.30;;
16731;SDS011;8484;50.904;9.192;2024-02-15T04:59:45;11.87;;;10.23;;
16731;SDS011;8484;50.904;9.192;2024-02-15T05:02:32;12.87;;;10.17;;
16731;SDS011;8484;50.904;9.192;2024-02-15T05:05:20;12.83;;;10.40;;
16731;SDS011;8484;50.904;9.192;2024-02-15T05:08:15;15.50;;;10.30;;
16731;SDS011;8484;50.904;9.192;2024-02-15T05:11:00;13.43;;;9.87;;
16731;SDS011;8484;50.904;9.192;2024-02-15T05:13:49;14.67;;;10.63;;
16731;SDS011;8484;50.904;9.192;2024-02-15T05:16:34;17.97;;;10.90;;
16731;SDS011;8484;50.904;9.192;2024-02-15T05:19:32;12.43;;;10.37;;
16731;SDS011;8484;50.904;9.192;2024-02-15T05:22:25;14.47;;;10.50;;
16731;SDS011;8484;50.904;9.192;2024-02-15T05:25:12;11.50;;;10.27;;
16731;SDS011;8484;50.904;9.192;2024-02-15T05:27:59;13.63;;;10.40;;
16731;SDS011;8484;50.904;9.192;2024-02-15T05:30:46;16.10;;;10.63;;
16731;SDS011;8484;50.904;9.192;2024-02-15T05:33:32;12.87;;;10.03;;
16731;SDS011;8484;50.904;9.192;2024-02-15T05:36:18;14.43;;;10.30;;
16731;SDS011;8484;50.904;9.192;2024-02-15T05:39:05;14.87;;;10.97;;
16731;SDS011;8484;50.904;9.192;2024-02-15T05:41:51;14.13;;;10.80;;
16731;SDS011;8484;50.904;9.192;2024-02-15T05:44:36;12.47;;;10.33;;
16731;SDS011;8484;50.904;9.192;2024-02-15T05:47:23;13.23;;;10.40;;
16731;SDS011;8484;50.904;9.192;2024-02-15T05:50:09;12.83;;;10.07;;
16731;SDS011;8484;50.904;9.192;2024-02-15T05:52:55;11.07;;;9.03;;
16731;SDS011;8484;50.904;9.192;2024-02-15T05:55:42;13.33;;;9.80;;
16731;SDS011;8484;50.904;9.192;2024-02-15T05:58:28;10.40;;;9.20;;
16731;SDS011;8484;50.904;9.192;2024-02-15T06:01:13;11.67;;;9.00;;
16731;SDS011;8484;50.904;9.192;2024-02-15T06:04:00;15.47;;;9.73;;
16731;SDS011;8484;50.904;9.192;2024-02-15T06:06:48;11.97;;;9.20;;
16731;SDS011;8484;50.904;9.192;2024-02-15T06:09:34;8.90;;;6.73;;
16731;SDS011;8484;50.904;9.192;2024-02-15T06:12:20;11.53;;;7.13;;
16731;SDS011;8484;50.904;9.192;2024-02-15T06:15:06;10.27;;;6.60;;
16731;SDS011;8484;50.904;9.192;2024-02-15T06:17:58;10.07;;;5.53;;
16731;SDS011;8484;50.904;9.192;2024-02-15T06:20:45;10.40;;;5.83;;
16731;SDS011;8484;50.904;9.192;2024-02-15T06:23:32;6.87;;;5.93;;
16731;SDS011;8484;50.904;9.192;2024-02-15T06:26:19;8.43;;;6.23;;
16731;SDS011;8484;50.904;9.192;2024-02-15T06:29:05;8.77;;;6.47;;
16731;SDS011;8484;50.904;9.192;2024-02-15T06:32:08;10.87;;;7.57;;
16731;SDS011;8484;50.904;9.192;2024-02-15T06:35:11;7.43;;;6.17;;
16731;SDS011;8484;50.904;9.192;2024-02-15T06:38:18;9.43;;;7.03;;
16731;SDS011;8484;50.904;9.192;2024-02-15T06:41:21;13.33;;;7.40;;
16731;SDS011;8484;50.904;9.192;2024-02-15T06:44:07;10.67;;;7.53;;
16731;SDS011;8484;50.904;9.192;2024-02-15T06:46:53;11.47;;;7.20;;
16731;SDS011;8484;50.904;9.192;2024-02-15T06:49:39;8.27;;;6.90;;
16731;SDS011;8484;50.904;9.192;2024-02-15T06:52:24;10.60;;;7.03;;
16731;SDS011;8484;50.904;9.192;2024-02-15T06:55:11;9.63;;;7.20;;
16731;SDS011;8484;50.904;9.192;2024-02-15T06:57:58;8.90;;;6.73;;
16731;SDS011;8484;50.904;9.192;2024-02-15T07:00:44;11.27;;;7.43;;
16731;SDS011;8484;50.904;9.192;2024-02-15T07:03:30;7.67;;;6.10;;
16731;SDS011;8484;50.904;9.192;2024-02-15T07:06:15;6.83;;;6.13;;
16731;SDS011;8484;50.904;9.192;2024-02-15T07:09:01;7.13;;;5.97;;
16731;SDS011;8484;50.904;9.192;2024-02-15T07:11:48;8.83;;;6.33;;
16731;SDS011;8484;50.904;9.192;2024-02-15T07:14:34;8.07;;;6.30;;
16731;SDS011;8484;50.904;9.192;2024-02-15T07:17:23;8.67;;;6.23;;
16731;SDS011;8484;50.904;9.192;2024-02-15T07:20:10;9.43;;;6.30;;
16731;SDS011;8484;50.904;9.192;2024-02-15T07:22:58;10.13;;;6.83;;
16731;SDS011;8484;50.904;9.192;2024-02-15T07:25:43;8.30;;;6.30;;
16731;SDS011;8484;50.904;9.192;2024-02-15T07:28:33;8.17;;;5.83;;
16731;SDS011;8484;50.904;9.192;2024-02-15T07:31:20;8.87;;;5.90;;
16731;SDS011;8484;50.904;9.192;2024-02-15T07:34:06;7.03;;;5.67;;
16731;SDS011;8484;50.904;9.192;2024-02-15T07:36:51;8.17;;;6.10;;
16731;SDS011;8484;50.904;9.192;2024-02-15T07:39:37;8.57;;;6.03;;
16731;SDS011;8484;50.904;9.192;2024-02-15T07:42:23;11.23;;;6.90;;
16731;SDS011;8484;50.904;9.192;2024-02-15T07:45:11;9.93;;;6.43;;
16731;SDS011;8484;50.904;9.192;2024-02-15T07:47:57;10.73;;;7.63;;
16731;SDS011;8484;50.904;9.192;2024-02-15T07:50:42;11.50;;;7.37;;
16731;SDS011;8484;50.904;9.192;2024-02-15T07:53:34;10.60;;;7.80;;
16731;SDS011;8484;50.904;9.192;2024-02-15T07:56:20;11.57;;;7.00;;
16731;SDS011;8484;50.904;9.192;2024-02-15T07:59:05;10.87;;;7.83;;
16731;SDS011;8484;50.904;9.192;2024-02-15T08:01:52;13.80;;;7.60;;
16731;SDS011;8484;50.904;9.192;2024-02-15T08:04:38;10.50;;;7.53;;
16731;SDS011;8484;50.904;9.192;2024-02-15T08:07:25;9.40;;;7.17;;
16731;SDS011;8484;50.904;9.192;2024-02-15T08:10:15;9.53;;;7.17;;
16731;SDS011;8484;50.904;9.192;2024-02-15T08:13:01;9.20;;;7.20;;
16731;SDS011;8484;50.904;9.192;2024-02-15T08:15:47;8.80;;;6.90;;
16731;SDS011;8484;50.904;9.192;2024-02-15T08:18:37;9.00;;;7.63;;
16731;SDS011;8484;50.904;9.192;2024-02-15T08:21:26;8.37;;;7.43;;
16731;SDS011;8484;50.904;9.192;2024-02-15T08:24:12;14.03;;;8.00;;
16731;SDS011;8484;50.904;9.192;2024-02-15T08:27:12;10.93;;;7.87;;
16731;SDS011;8484;50.904;9.192;2024-02-15T08:34:19;13.13;;;7.80;;
16731;SDS011;8484;50.904;9.192;2024-02-15T08:37:23;10.90;;;7.97;;
16731;SDS011;8484;50.904;9.192;2024-02-15T08:40:09;10.97;;;7.73;;
16731;SDS011;8484;50.904;9.192;2024-02-15T08:42:55;12.80;;;8.33;;
16731;SDS011;8484;50.904;9.192;2024-02-15T08:45:41;14.67;;;7.50;;
16731;SDS011;8484;50.904;9.192;2024-02-15T08:48:27;11.40;;;8.43;;
16731;SDS011;8484;50.904;9.192;2024-02-15T08:51:15;10.37;;;7.87;;
16731;SDS011;8484;50.904;9.192;2024-02-15T08:54:01;10.23;;;7.63;;
16731;SDS011;8484;50.904;9.192;2024-02-15T08:56:47;10.07;;;7.57;;
16731;SDS011;8484;50.904;9.192;2024-02-15T08:59:32;9.17;;;7.03;;
16731;SDS011;8484;50.904;9.192;2024-02-15T09:02:18;14.40;;;7.20;;
16731;SDS011;8484;50.904;9.192;2024-02-15T09:05:03;8.17;;;6.47;;
16731;SDS011;8484;50.904;9.192;2024-02-15T09:07:51;10.67;;;7.00;;
16731;SDS011;8484;50.904;9.192;2024-02-15T09:10:37;10.00;;;6.77;;
16731;SDS011;8484;50.904;9.192;2024-02-15T09:13:23;9.27;;;6.63;;
16731;SDS011;8484;50.904;9.192;2024-02-15T09:16:08;9.03;;;6.70;;
16731;SDS011;8484;50.904;9.192;2024-02-15T09:18:55;9.63;;;7.23;;
16731;SDS011;8484;50.904;9.192;2024-02-15T09:21:44;9.37;;;7.03;;
16731;SDS011;8484;50.904;9.192;2024-02-15T09:24:31;12.63;;;6.70;;
16731;SDS011;8484;50.904;9.192;2024-02-15T09:27:17;10.67;;;6.10;;
16731;SDS011;8484;50.904;9.192;2024-02-15T09:30:03;7.10;;;6.30;;
16731;SDS011;8484;50.904;9.192;2024-02-15T09:32:51;9.57;;;6.77;;
16731;SDS011;8484;50.904;9.192;2024-02-15T09:35:37;10.13;;;6.53;;
16731;SDS011;8484;50.904;9.192;2024-02-15T09:38:22;7.33;;;5.60;;
16731;SDS011;8484;50.904;9.192;2024-02-15T09:41:10;7.97;;;5.43;;
16731;SDS011;8484;50.904;9.192;2024-02-15T09:43:55;8.43;;;5.33;;
16731;SDS011;8484;50.904;9.192;2024-02-15T09:46:42;6.23;;;5.60;;
16731;SDS011;8484;50.904;9.192;2024-02-15T09:49:29;7.30;;;5.33;;
16731;SDS011;8484;50.904;9.192;2024-02-15T09:52:15;5.90;;;5.13;;
16731;SDS011;8484;50.904;9.192;2024-02-15T09:55:02;5.53;;;4.93;;
16731;SDS011;8484;50.904;9.192;2024-02-15T09:57:49;6.77;;;5.33;;
16731;SDS011;8484;50.904;9.192;2024-02-15T10:00:35;10.03;;;5.10;;
16731;SDS011;8484;50.904;9.192;2024-02-15T10:03:21;7.20;;;4.80;;
16731;SDS011;8484;50.904;9.192;2024-02-15T10:06:09;7.57;;;4.73;;
16731;SDS011;8484;50.904;9.192;2024-02-15T10:08:55;6.93;;;4.20;;
16731;SDS011;8484;50.904;9.192;2024-02-15T10:12:12;7.23;;;4.30;;
16731;SDS011;8484;50.904;9.192;2024-02-15T10:14:59;8.90;;;4.20;;
16731;SDS011;8484;50.904;9.192;2024-02-15T10:17:47;9.50;;;3.90;;
16731;SDS011;8484;50.904;9.192;2024-02-15T10:20:40;6.20;;;4.00;;
16731;SDS011;8484;50.904;9.192;2024-02-15T10:23:27;4.00;;;3.43;;
16731;SDS011;8484;50.904;9.192;2024-02-15T10:26:19;7.27;;;3.93;;
16731;SDS011;8484;50.904;9.192;2024-02-15T10:29:07;4.77;;;3.63;;
16731;SDS011;8484;50.904;9.192;2024-02-15T10:31:56;6.83;;;3.70;;
16731;SDS011;8484;50.904;9.192;2024-02-15T10:34:45;5.87;;;3.70;;
16731;SDS011;8484;50.904;9.192;2024-02-15T10:37:31;4.93;;;3.60;;
16731;SDS011;8484;50.904;9.192;2024-02-15T10:40:17;5.33;;;3.53;;
16731;SDS011;8484;50.904;9.192;2024-02-15T10:43:04;6.10;;;3.67;;
16731;SDS011;8484;50.904;9.192;2024-02-15T10:45:49;7.13;;;3.60;;
16731;SDS011;8484;50.904;9.192;2024-02-15T10:48:38;3.90;;;3.07;;
16731;SDS011;8484;50.904;9.192;2024-02-15T10:51:24;4.53;;;2.63;;
16731;SDS011;8484;50.904;9.192;2024-02-15T10:54:12;4.70;;;2.67;;
16731;SDS011;8484;50.904;9.192;2024-02-15T10:57:03;6.33;;;2.73;;
16731;SDS011;8484;50.904;9.192;2024-02-15T10:59:54;4.07;;;2.40;;
16731;SDS011;8484;50.904;9.192;2024-02-15T11:02:42;4.60;;;2.60;;
16731;SDS011;8484;50.904;9.192;2024-02-15T11:05:37;5.93;;;2.43;;
16731;SDS011;8484;50.904;9.192;2024-02-15T11:08:23;5.80;;;2.27;;
16731;SDS011;8484;50.904;9.192;2024-02-15T11:11:09;3.93;;;2.90;;
16731;SDS011;8484;50.904;9.192;2024-02-15T11:17:07;2.60;;;2.00;;
16731;SDS011;8484;50.904;9.192;2024-02-15T11:19:56;4.47;;;2.67;;
16731;SDS011;8484;50.904;9.192;2024-02-15T11:22:44;5.43;;;2.07;;
16731;SDS011;8484;50.904;9.192;2024-02-15T11:25:41;3.10;;;2.00;;
16731;SDS011;8484;50.904;9.192;2024-02-15T11:28:38;3.47;;;1.90;;
16731;SDS011;8484;50.904;9.192;2024-02-15T11:34:44;5.50;;;1.80;;
16731;SDS011;8484;50.904;9.192;2024-02-15T11:37:53;3.83;;;1.60;;
16731;SDS011;8484;50.904;9.192;2024-02-15T11:40:59;3.33;;;1.90;;
16731;SDS011;8484;50.904;9.192;2024-02-15T11:43:56;2.73;;;1.60;;
16731;SDS011;8484;50.904;9.192;2024-02-15T11:46:51;3.27;;;1.47;;
16731;SDS011;8484;50.904;9.192;2024-02-15T11:49:41;4.23;;;2.10;;
16731;SDS011;8484;50.904;9.192;2024-02-15T11:52:26;3.87;;;1.90;;
16731;SDS011;8484;50.904;9.192;2024-02-15T11:55:13;2.17;;;1.47;;
16731;SDS011;8484;50.904;9.192;2024-02-15T11:58:02;4.73;;;2.10;;
16731;SDS011;8484;50.904;9.192;2024-02-15T12:01:01;6.50;;;2.00;;
16731;SDS011;8484;50.904;9.192;2024-02-15T12:04:04;2.63;;;1.80;;
16731;SDS011;8484;50.904;9.192;2024-02-15T12:07:07;3.10;;;1.43;;
16731;SDS011;8484;50.904;9.192;2024-02-15T12:10:16;3.30;;;1.60;;
16731;SDS011;8484;50.904;9.192;2024-02-15T12:13:20;4.27;;;1.80;;
16731;SDS011;8484;50.904;9.192;2024-02-15T12:16:23;3.60;;;1.63;;
16731;SDS011;8484;50.904;9.192;2024-02-15T12:19:26;2.17;;;1.30;;
16731;SDS011;8484;50.904;9.192;2024-02-15T12:22:12;4.87;;;1.70;;
16731;SDS011;8484;50.904;9.192;2024-02-15T12:24:59;4.93;;;1.47;;
16731;SDS011;8484;50.904;9.192;2024-02-15T12:27:46;3.53;;;1.77;;
16731;SDS011;8484;50.904;9.192;2024-02-15T12:30:38;2.27;;;1.30;;
16731;SDS011;8484;50.904;9.192;2024-02-15T12:33:24;3.03;;;1.70;;
16731;SDS011;8484;50.904;9.192;2024-02-15T12:36:11;2.27;;;1.47;;
16731;SDS011;8484;50.904;9.192;2024-02-15T12:39:00;1.53;;;0.97;;
16731;SDS011;8484;50.904;9.192;2024-02-15T12:41:47;3.83;;;1.37;;
16731;SDS011;8484;50.904;9.192;2024-02-15T12:44:45;3.57;;;1.27;;
16731;SDS011;8484;50.904;9.192;2024-02-15T12:47:32;3.53;;;1.50;;
16731;SDS011;8484;50.904;9.192;2024-02-15T12:50:18;3.37;;;1.30;;
16731;SDS011;8484;50.904;9.192;2024-02-15T12:53:05;3.17;;;1.40;;
16731;SDS011;8484;50.904;9.192;2024-02-15T12:55:54;3.03;;;1.30;;
16731;SDS011;8484;50.904;9.192;2024-02-15T12:58:40;2.13;;;1.40;;
16731;SDS011;8484;50.904;9.192;2024-02-15T13:01:28;5.70;;;1.87;;
16731;SDS011;8484;50.904;9.192;2024-02-15T13:04:21;3.90;;;1.57;;
16731;SDS011;8484;50.904;9.192;2024-02-15T13:07:08;2.53;;;1.20;;
16731;SDS011;8484;50.904;9.192;2024-02-15T13:09:54;3.10;;;1.50;;
16731;SDS011;8484;50.904;9.192;2024-02-15T13:12:40;2.67;;;1.43;;
16731;SDS011;8484;50.904;9.192;2024-02-15T13:15:27;3.70;;;1.40;;
16731;SDS011;8484;50.904;9.192;2024-02-15T13:18:17;3.80;;;1.60;;
16731;SDS011;8484;50.904;9.192;2024-02-15T13:21:03;1.30;;;1.20;;
16731;SDS011;8484;50.904;9.192;2024-02-15T13:23:50;3.03;;;1.30;;
16731;SDS011;8484;50.904;9.192;2024-02-15T13:26:36;1.97;;;1.17;;
16731;SDS011;8484;50.904;9.192;2024-02-15T13:29:21;3.07;;;1.47;;
16731;SDS011;8484;50.904;9.192;2024-02-15T13:32:07;4.13;;;1.60;;
16731;SDS011;8484;50.904;9.192;2024-02-15T13:34:57;1.57;;;1.30;;
16731;SDS011;8484;50.904;9.192;2024-02-15T13:37:51;2.77;;;1.60;;
16731;SDS011;8484;50.904;9.192;2024-02-15T13:40:37;2.27;;;1.00;;
16731;SDS011;8484;50.904;9.192;2024-02-15T13:43:23;1.20;;;1.00;;
16731;SDS011;8484;50.904;9.192;2024-02-15T13:46:09;2.33;;;1.17;;
16731;SDS011;8484;50.904;9.192;2024-02-15T13:48:54;3.97;;;1.23;;
16731;SDS011;8484;50.904;9.192;2024-02-15T13:51:43;2.57;;;1.07;;
16731;SDS011;8484;50.904;9.192;2024-02-15T13:54:28;1.50;;;1.07;;
16731;SDS011;8484;50.904;9.192;2024-02-15T13:57:14;3.43;;;1.40;;
16731;SDS011;8484;50.904;9.192;2024-02-15T14:00:00;1.70;;;1.10;;
16731;SDS011;8484;50.904;9.192;2024-02-15T14:02:46;2.63;;;1.13;;
16731;SDS011;8484;50.904;9.192;2024-02-15T14:05:32;1.77;;;1.17;;
16731;SDS011;8484;50.904;9.192;2024-02-15T14:08:19;1.30;;;1.03;;
16731;SDS011;8484;50.904;9.192;2024-02-15T14:11:06;3.83;;;1.27;;
16731;SDS011;8484;50.904;9.192;2024-02-15T14:13:53;2.73;;;1.13;;
16731;SDS011;8484;50.904;9.192;2024-02-15T14:16:44;3.97;;;1.10;;
16731;SDS011;8484;50.904;9.192;2024-02-15T14:19:31;3.03;;;1.30;;
16731;SDS011;8484;50.904;9.192;2024-02-15T14:22:17;2.47;;;1.07;;
16731;SDS011;8484;50.904;9.192;2024-02-15T14:25:04;2.10;;;1.20;;
16731;SDS011;8484;50.904;9.192;2024-02-15T14:27:53;2.93;;;1.37;;
16731;SDS011;8484;50.904;9.192;2024-02-15T14:30:48;3.63;;;1.20;;
16731;SDS011;8484;50.904;9.192;2024-02-15T14:33:51;3.50;;;1.30;;
16731;SDS011;8484;50.904;9.192;2024-02-15T14:36:36;3.20;;;1.13;;
16731;SDS011;8484;50.904;9.192;2024-02-15T14:39:22;1.47;;;0.97;;
16731;SDS011;8484;50.904;9.192;2024-02-15T14:42:09;4.00;;;1.20;;
16731;SDS011;8484;50.904;9.192;2024-02-15T14:44:56;2.20;;;1.10;;
16731;SDS011;8484;50.904;9.192;2024-02-15T14:47:41;2.73;;;1.37;;
16731;SDS011;8484;50.904;9.192;2024-02-15T14:50:27;2.50;;;1.10;;
16731;SDS011;8484;50.904;9.192;2024-02-15T14:53:13;1.80;;;1.10;;
16731;SDS011;8484;50.904;9.192;2024-02-15T14:55:59;2.63;;;1.43;;
16731;SDS011;8484;50.904;9.192;2024-02-15T14:58:49;2.80;;;1.40;;
16731;SDS011;8484;50.904;9.192;2024-02-15T15:01:35;3.20;;;1.60;;
16731;SDS011;8484;50.904;9.192;2024-02-15T15:04:21;4.30;;;1.47;;
16731;SDS011;8484;50.904;9.192;2024-02-15T15:07:07;3.30;;;1.17;;
16731;SDS011;8484;50.904;9.192;2024-02-15T15:10:10;2.63;;;1.10;;
16731;SDS011;8484;50.904;9.192;2024-02-15T15:13:10;1.77;;;1.00;;
16731;SDS011;8484;50.904;9.192;2024-02-15T15:15:58;4.50;;;1.20;;
16731;SDS011;8484;50.904;9.192;2024-02-15T15:18:45;4.67;;;1.00;;
16731;SDS011;8484;50.904;9.192;2024-02-15T15:21:31;2.77;;;1.20;;
16731;SDS011;8484;50.904;9.192;2024-02-15T15:24:16;2.37;;;1.40;;
16731;SDS011;8484;50.904;9.192;2024-02-15T15:27:02;7.20;;;1.40;;
16731;SDS011;8484;50.904;9.192;2024-02-15T15:29:49;1.80;;;1.30;;
16731;SDS011;8484;50.904;9.192;2024-02-15T15:32:36;4.67;;;1.37;;
16731;SDS011;8484;50.904;9.192;2024-02-15T15:35:23;3.83;;;1.63;;
16731;SDS011;8484;50.904;9.192;2024-02-15T15:38:12;1.50;;;1.10;;
16731;SDS011;8484;50.904;9.192;2024-02-15T15:40:57;2.77;;;1.30;;
16731;SDS011;8484;50.904;9.192;2024-02-15T15:43:43;4.83;;;1.40;;
16731;SDS011;8484;50.904;9.192;2024-02-15T15:46:29;2.77;;;1.27;;
16731;SDS011;8484;50.904;9.192;2024-02-15T15:49:18;1.33;;;1.07;;
16731;SDS011;8484;50.904;9.192;2024-02-15T15:52:04;1.97;;;1.27;;
16731;SDS011;8484;50.904;9.192;2024-02-15T15:54:51;1.97;;;1.30;;
16731;SDS011;8484;50.904;9.192;2024-02-15T15:57:37;4.03;;;1.47;;
16731;SDS011;8484;50.904;9.192;2024-02-15T16:00:23;2.27;;;1.03;;
16731;SDS011;8484;50.904;9.192;2024-02-15T16:03:09;4.40;;;1.73;;
16731;SDS011;8484;50.904;9.192;2024-02-15T16:05:56;4.03;;;1.37;;
16731;SDS011;8484;50.904;9.192;2024-02-15T16:08:41;2.50;;;1.30;;
16731;SDS011;8484;50.904;9.192;2024-02-15T16:11:27;1.57;;;1.27;;
16731;SDS011;8484;50.904;9.192;2024-02-15T16:14:13;1.73;;;1.23;;
16731;SDS011;8484;50.904;9.192;2024-02-15T16:16:59;2.40;;;1.43;;
16731;SDS011;8484;50.904;9.192;2024-02-15T16:19:44;4.30;;;1.40;;
16731;SDS011;8484;50.904;9.192;2024-02-15T16:22:32;2.67;;;1.57;;
16731;SDS011;8484;50.904;9.192;2024-02-15T16:25:17;4.10;;;1.40;;
16731;SDS011;8484;50.904;9.192;2024-02-15T16:28:03;2.77;;;1.40;;
16731;SDS011;8484;50.904;9.192;2024-02-15T16:30:50;3.20;;;1.27;;
16731;SDS011;8484;50.904;9.192;2024-02-15T16:33:35;7.87;;;1.40;;
16731;SDS011;8484;50.904;9.192;2024-02-15T16:36:21;4.67;;;1.20;;
16731;SDS011;8484;50.904;9.192;2024-02-15T16:39:09;3.20;;;1.30;;
16731;SDS011;8484;50.904;9.192;2024-02-15T16:41:55;4.20;;;1.50;;
16731;SDS011;8484;50.904;9.192;2024-02-15T16:44:41;2.10;;;1.00;;
16731;SDS011;8484;50.904;9.192;2024-02-15T16:47:30;4.87;;;1.47;;
16731;SDS011;8484;50.904;9.192;2024-02-15T16:50:16;2.37;;;1.23;;
16731;SDS011;8484;50.904;9.192;2024-02-15T16:53:02;3.50;;;1.47;;
16731;SDS011;8484;50.904;9.192;2024-02-15T16:55:49;4.83;;;1.47;;
16731;SDS011;8484;50.904;9.192;2024-02-15T16:58:37;4.40;;;1.77;;
16731;SDS011;8484;50.904;9.192;2024-02-15T17:01:23;3.50;;;1.40;;
16731;SDS011;8484;50.904;9.192;2024-02-15T17:04:09;2.10;;;1.00;;
16731;SDS011;8484;50.904;9.192;2024-02-15T17:06:59;3.63;;;1.40;;
16731;SDS011;8484;50.904;9.192;2024-02-15T17:09:45;3.80;;;1.70;;